Time;durP1;ratioP1;P1;durP2;ratioP2;P2;SDS_P1;SDS_P2;PMS_P1;PMS_P2;Temp;Humidity;BMP_temperature;BMP_pressure;BME280_temperature;BME280_humidity;BME280_pressure;Samples;Min_cycle;Max_cycle;Signal;HPM_P1;HPM_P2
2023/09/13 00:01:48;;;;;;;4.50;2.95;;;;;;;22.84;62.21;100284.28;4196956;28;20097;-60
2023/09/13 00:03:51;;;;;;;;;;;;;;;22.72;62.56;100281.25;4199581;28;20115;-61
2023/09/13 00:05:54;;;;;;;6.25;2.97;;;;;;;22.73;62.81;100288.28;4196516;28;19920;-60
2023/09/13 00:07:57;;;;;;;4.35;2.95;;;;;;;22.71;62.65;100288.34;4198857;28;20040;-60
2023/09/13 00:10:00;;;;;;;6.22;3.40;;;;;;;22.70;62.66;100288.41;4195136;28;20045;-60
2023/09/13 00:12:03;;;;;;;5.85;2.58;;;;;;;22.68;62.52;100296.41;4195401;28;20545;-60
2023/09/13 00:14:05;;;;;;;6.85;3.15;;;;;;;22.66;62.87;100293.81;4197345;28;20434;-60
2023/09/13 00:16:17;;;;;;;4.63;3.08;;;;;;;22.61;63.03;100286.97;4201872;28;20044;-60
2023/09/13 00:18:21;;;;;;;5.43;3.33;;;;;;;22.62;62.76;100299.31;4195534;28;20037;-60
2023/09/13 00:20:24;;;;;;;;;;;;;;;22.48;62.94;100299.81;4194657;28;20028;-60
2023/09/13 00:22:27;;;;;;;6.55;3.17;;;;;;;22.44;62.91;100284.97;4196007;28;19960;-60
2023/09/13 00:24:30;;;;;;;8.93;3.30;;;;;;;22.55;62.65;100295.16;4196633;28;20043;-60
2023/09/13 00:26:33;;;;;;;5.75;3.60;;;;;;;22.49;62.64;100286.50;4195047;28;20480;-60
2023/09/13 00:28:36;;;;;;;5.45;3.15;;;;;;;22.37;63.07;100291.41;4198856;28;20558;-60
2023/09/13 00:30:37;;;;;;;7.05;3.97;;;;;;;22.37;63.43;100281.69;4194979;28;20047;-60
2023/09/13 00:32:40;;;;;;;5.68;3.72;;;;;;;22.49;62.79;100280.38;4208312;22;20036;-60
2023/09/13 00:34:45;;;;;;;4.63;3.20;;;;;;;22.33;63.34;100281.84;4144218;28;20135;-60
2023/09/13 00:36:48;;;;;;;7.05;3.30;;;;;;;22.25;63.21;100288.28;4144987;28;20401;-60
2023/09/13 00:38:51;;;;;;;4.97;3.20;;;;;;;22.23;63.62;100290.09;4127207;28;20046;-60
2023/09/13 00:40:53;;;;;;;5.95;3.30;;;;;;;22.25;63.42;100292.69;4133142;28;20116;-61
2023/09/13 00:42:56;;;;;;;5.75;3.58;;;;;;;22.19;63.61;100296.44;4124760;28;20047;-60
2023/09/13 00:44:59;;;;;;;3.53;2.67;;;;;;;22.22;63.01;100296.31;4128998;28;20045;-60
2023/09/13 00:47:02;;;;;;;4.80;3.40;;;;;;;22.19;63.24;100308.81;4129394;28;20125;-60
2023/09/13 00:49:06;;;;;;;4.10;2.88;;;;;;;22.15;63.65;100308.06;4116434;28;20525;-61
2023/09/13 00:51:10;;;;;;;3.83;2.65;;;;;;;22.14;63.78;100306.34;4113307;28;20221;-61
2023/09/13 00:53:14;;;;;;;;;;;;;;;22.04;64.33;100313.75;4129871;28;20133;-60
2023/09/13 00:55:20;;;;;;;9.20;3.38;;;;;;;22.07;64.22;100310.97;4111148;28;20364;-60
2023/09/13 00:57:23;;;;;;;9.55;3.00;;;;;;;22.10;64.58;100307.38;4127331;28;20050;-60
2023/09/13 00:59:26;;;;;;;8.10;3.47;;;;;;;22.09;65.03;100314.47;4113928;28;20101;-60
2023/09/13 01:01:30;;;;;;;6.38;3.28;;;;;;;22.07;64.94;100304.84;4131282;28;20035;-61
2023/09/13 01:03:33;;;;;;;5.82;3.40;;;;;;;22.07;64.76;100312.78;4130295;28;20120;-60
2023/09/13 01:05:37;;;;;;;6.20;4.00;;;;;;;22.06;64.44;100319.84;4125813;28;20043;-61
2023/09/13 01:07:43;;;;;;;5.68;3.45;;;;;;;22.05;64.61;100314.59;4128152;28;20046;-60
2023/09/13 01:09:46;;;;;;;6.05;3.30;;;;;;;22.05;65.03;100327.84;4128566;28;20070;-61
2023/09/13 01:11:51;;;;;;;4.75;3.10;;;;;;;22.03;64.91;100324.41;4093903;28;20415;-61
2023/09/13 01:13:53;;;;;;;;;;;;;;;21.90;65.29;100329.25;4113163;28;20043;-61
2023/09/13 01:16:14;;;;;;;5.05;3.25;;;;;;;21.91;64.98;100331.84;4106831;28;20396;-61
2023/09/13 01:18:22;;;;;;;5.97;3.58;;;;;;;21.91;64.59;100331.84;4110486;28;20500;-60
2023/09/13 01:20:42;;;;;;;4.50;3.05;;;;;;;21.92;64.57;100335.38;4129214;28;20137;-60
2023/09/13 01:23:17;;;;;;;4.90;3.17;;;;;;;21.89;64.72;100333.69;4127545;28;20042;-60
2023/09/13 01:25:35;;;;;;;7.13;3.22;;;;;;;21.86;65.00;100339.09;4123404;28;20069;-60
2023/09/13 01:27:48;;;;;;;4.45;3.22;;;;;;;21.83;65.47;100335.66;4112741;28;20074;-60
2023/09/13 01:29:54;;;;;;;5.00;3.10;;;;;;;21.82;65.40;100342.75;4127109;28;20133;-60
2023/09/13 01:31:57;;;;;;;5.90;3.13;;;;;;;21.76;65.50;100340.31;4127386;28;20070;-60
2023/09/13 01:34:01;;;;;;;5.75;3.35;;;;;;;21.73;65.78;100348.38;4125562;28;20030;-61
2023/09/13 01:36:03;;;;;;;6.20;3.38;;;;;;;21.70;65.72;100348.44;4111998;28;20034;-60
2023/09/13 01:38:07;;;;;;;6.83;3.17;;;;;;;21.68;65.87;100345.00;4130052;28;20117;-60
2023/09/13 01:40:11;;;;;;;;;;;;;;;21.56;65.96;100343.63;4111246;28;20046;-60
2023/09/13 01:42:17;;;;;;;7.20;3.58;;;;;;;21.54;66.21;100348.13;4128700;28;19922;-60
2023/09/13 01:44:19;;;;;;;7.55;3.70;;;;;;;21.53;66.23;100346.38;4129512;28;20133;-60
2023/09/13 01:46:28;;;;;;;3.63;2.97;;;;;;;21.56;66.44;100352.44;4110866;28;20065;-61
2023/09/13 01:48:32;;;;;;;4.45;3.28;;;;;;;21.57;66.22;100356.81;4110589;28;20109;-60
2023/09/13 01:50:36;;;;;;;5.78;3.78;;;;;;;21.55;66.19;100366.59;4096060;28;20040;-61
2023/09/13 01:52:39;;;;;;;4.17;2.67;;;;;;;21.56;66.24;100359.50;4127158;28;20070;-60
2023/09/13 01:54:42;;;;;;;5.80;3.15;;;;;;;21.56;66.25;100359.50;4124224;28;20470;-60
2023/09/13 01:56:45;;;;;;;5.47;3.27;;;;;;;21.54;66.70;100362.22;4111497;28;20046;-60
2023/09/13 01:58:48;;;;;;;4.47;3.33;;;;;;;21.50;67.11;100372.91;4112449;28;20290;-60
2023/09/13 02:00:51;;;;;;;5.07;3.00;;;;;;;21.47;67.28;100379.16;4129417;28;20041;-60
2023/09/13 02:02:56;;;;;;;5.97;3.33;;;;;;;21.46;67.33;100382.72;4128035;28;20101;-60
2023/09/13 02:04:58;;;;;;;;;;;;;;;21.33;67.65;100370.78;4111992;28;20050;-61
2023/09/13 02:07:02;;;;;;;6.22;3.50;;;;;;;21.33;67.99;100371.66;4094357;28;20374;-60
2023/09/13 02:09:06;;;;;;;4.55;3.55;;;;;;;21.33;67.89;100370.78;4129394;28;20049;-60
2023/09/13 02:11:10;;;;;;;5.70;3.30;;;;;;;21.27;67.98;100374.50;4130103;28;20486;-61
2023/09/13 02:13:13;;;;;;;5.13;3.65;;;;;;;21.18;67.99;100373.00;4129750;28;20050;-61
2023/09/13 02:15:16;;;;;;;6.35;3.70;;;;;;;21.10;67.87;100367.97;4126393;28;20130;-60
2023/09/13 02:17:20;;;;;;;5.18;3.20;;;;;;;21.12;67.88;100367.06;4116071;28;20047;-60
2023/09/13 02:19:24;;;;;;;6.55;3.15;;;;;;;21.18;67.48;100367.72;4111161;28;20034;-60
2023/09/13 02:21:28;;;;;;;5.35;3.42;;;;;;;21.18;66.78;100372.16;4126405;28;20461;-60
2023/09/13 02:23:31;;;;;;;4.68;3.20;;;;;;;21.18;66.34;100372.16;4128945;28;20461;-60
2023/09/13 02:25:36;;;;;;;6.00;3.20;;;;;;;21.06;66.19;100362.81;4127006;28;20130;-60
2023/09/13 02:27:39;;;;;;;5.25;3.20;;;;;;;21.01;66.45;100367.38;4124444;28;20093;-60
2023/09/13 02:29:43;;;;;;;5.07;3.42;;;;;;;20.99;66.55;100367.41;4129886;28;20043;-60
2023/09/13 02:31:46;;;;;;;4.10;3.25;;;;;;;21.01;66.67;100367.38;4129449;28;20062;-60
2023/09/13 02:33:49;;;;;;;5.53;3.60;;;;;;;21.05;66.42;100363.72;4112021;28;20203;-60
2023/09/13 02:35:53;;;;;;;6.10;3.30;;;;;;;21.11;67.01;100355.59;4125802;28;20505;-60
2023/09/13 02:37:57;;;;;;;6.03;3.20;;;;;;;21.16;67.25;100361.63;4128032;28;20085;-61
2023/09/13 02:40:00;;;;;;;5.27;2.73;;;;;;;21.22;67.68;100371.16;4127815;28;20321;-60
2023/09/13 02:42:03;;;;;;;7.50;3.60;;;;;;;21.19;67.14;100374.75;4129533;28;20397;-60
2023/09/13 02:44:06;;;;;;;4.50;3.28;;;;;;;21.19;66.99;100374.75;4108385;28;20135;-60
2023/09/13 02:46:09;;;;;;;5.35;3.50;;;;;;;21.16;66.92;100379.25;4127645;28;20038;-60
2023/09/13 02:48:11;;;;;;;5.70;3.15;;;;;;;21.18;66.80;100375.66;4127672;28;20125;-60
2023/09/13 02:50:14;;;;;;;4.65;3.33;;;;;;;21.19;66.72;100385.31;4105598;28;20501;-60
2023/09/13 02:52:27;;;;;;;6.18;3.17;;;;;;;21.23;66.68;100384.31;4111326;28;20039;-60
2023/09/13 02:54:30;;;;;;;4.82;3.55;;;;;;;21.12;66.73;100386.41;4127322;28;20061;-61
2023/09/13 02:56:32;;;;;;;6.50;3.75;;;;;;;20.99;67.12;100382.44;4126337;28;20085;-60
2023/09/13 02:58:37;;;;;;;7.57;3.22;;;;;;;20.92;67.10;100395.84;4111419;28;20491;-60
2023/09/13 03:00:43;;;;;;;3.60;3.13;;;;;;;20.98;66.88;100391.25;4125555;28;20053;-60
2023/09/13 03:02:46;;;;;;;4.75;3.03;;;;;;;20.99;67.04;100379.78;4124476;28;20034;-60
2023/09/13 03:04:50;;;;;;;5.00;3.40;;;;;;;20.95;67.12;100394.00;4128812;28;20034;-60
2023/09/13 03:06:53;;;;;;;16.10;4.15;;;;;;;20.97;66.98;100390.41;4111777;28;20074;-60
2023/09/13 03:08:57;;;;;;;5.78;3.40;;;;;;;21.00;66.30;100387.66;4128197;28;20078;-60
2023/09/13 03:11:12;;;;;;;4.78;2.95;;;;;;;20.89;66.37;100392.41;4126408;28;20041;-61
2023/09/13 03:13:15;;;;;;;4.63;3.20;;;;;;;20.83;66.34;100390.78;4111763;28;20590;-60
2023/09/13 03:15:18;;;;;;;4.53;3.20;;;;;;;20.73;66.59;100407.84;4125620;28;20069;-60
2023/09/13 03:17:21;;;;;;;3.60;3.10;;;;;;;20.81;66.34;100399.69;4127277;28;20338;-60
2023/09/13 03:19:24;;;;;;;6.20;3.30;;;;;;;20.81;66.36;100395.28;4111075;28;20047;-60
2023/09/13 03:21:27;;;;;;;5.22;3.40;;;;;;;20.70;66.38;100397.34;4109942;28;20047;-60
2023/09/13 03:23:32;;;;;;;4.25;3.22;;;;;;;20.71;66.70;100394.66;4111170;28;20042;-60
2023/09/13 03:25:36;;;;;;;5.78;3.78;;;;;;;20.77;66.45;100391.00;4120228;28;20054;-61
2023/09/13 03:27:39;;;;;;;4.38;3.10;;;;;;;20.85;66.35;100391.63;4126417;28;20042;-60
2023/09/13 03:29:42;;;;;;;6.07;3.45;;;;;;;20.89;66.11;100393.25;4127267;28;20034;-60
2023/09/13 03:31:44;;;;;;;5.30;3.50;;;;;;;20.77;66.50;100384.84;4128080;28;20952;-61
2023/09/13 03:33:51;;;;;;;4.65;3.25;;;;;;;20.74;66.67;100391.94;4127619;28;20134;-61
2023/09/13 03:35:53;;;;;;;4.20;3.13;;;;;;;20.78;66.50;100387.44;4126689;28;20038;-61
2023/09/13 03:37:56;;;;;;;5.13;3.47;;;;;;;20.78;66.57;100390.09;4110477;28;20071;-60
2023/09/13 03:40:00;;;;;;;5.07;3.33;;;;;;;20.81;66.64;100383.81;4123175;28;20125;-60
2023/09/13 03:42:04;;;;;;;7.28;3.80;;;;;;;20.72;66.41;100385.84;4127002;28;20042;-60
2023/09/13 03:44:07;;;;;;;9.15;4.25;;;;;;;20.57;66.82;100380.94;4126784;28;20046;-61
2023/09/13 03:46:09;;;;;;;5.57;3.88;;;;;;;20.55;66.93;100381.00;4111543;28;20514;-60
2023/09/13 03:48:13;;;;;;;5.78;3.45;;;;;;;20.57;66.99;100387.13;4126969;28;20046;-60
2023/09/13 03:50:16;;;;;;;6.22;3.97;;;;;;;20.64;66.70;100385.16;4126698;28;20137;-60
2023/09/13 03:52:19;;;;;;;6.15;4.65;;;;;;;20.57;66.82;100383.59;4125600;28;20125;-60
2023/09/13 03:54:22;;;;;;;6.53;3.63;;;;;;;20.54;66.94;100387.19;4126646;28;20570;-60
2023/09/13 03:56:24;;;;;;;5.70;4.10;;;;;;;20.48;67.18;100376.81;4107798;28;20506;-60
2023/09/13 03:58:29;;;;;;;5.55;4.18;;;;;;;20.49;67.28;100367.13;4127967;28;20049;-60
2023/09/13 04:00:33;;;;;;;5.55;4.28;;;;;;;20.49;67.04;100367.97;4127144;28;20420;-60
2023/09/13 04:02:36;;;;;;;6.28;4.75;;;;;;;20.43;67.17;100362.88;4127366;28;20031;-60
2023/09/13 04:04:39;;;;;;;5.88;3.75;;;;;;;20.29;67.40;100359.75;4110014;28;20042;-60
2023/09/13 04:06:44;;;;;;;5.28;4.15;;;;;;;20.27;67.89;100364.19;4128706;28;20457;-60
2023/09/13 04:08:47;;;;;;;16.15;12.65;;;;;;;20.37;70.13;100369.19;4131402;28;20046;-65
2023/09/13 04:10:50;;;;;;;10.85;8.35;;;;;;;20.65;69.79;100367.56;4113313;28;20035;-65
2023/09/13 04:12:54;;;;;;;8.18;5.63;;;;;;;20.83;67.91;100360.88;4113531;28;20034;-65
2023/09/13 04:14:58;;;;;;;8.85;5.60;;;;;;;20.95;67.92;100370.22;4112626;28;20517;-65
2023/09/13 04:17:01;;;;;;;;;;;;;;;21.03;68.61;100370.84;4110529;28;20051;-65
2023/09/13 04:19:05;;;;;;;9.45;5.85;;;;;;;21.25;67.98;100371.06;4097861;28;19922;-65
2023/09/13 04:21:08;;;;;;;8.60;4.80;;;;;;;21.44;66.97;100374.81;4113273;28;20030;-65
2023/09/13 04:23:11;;;;;;;6.15;4.55;;;;;;;21.54;66.59;100370.16;4113158;28;20563;-65
2023/09/13 04:25:15;;;;;;;7.10;4.40;;;;;;;21.63;66.27;100366.31;4126701;28;20062;-66
2023/09/13 04:27:21;;;;;;;8.77;4.32;;;;;;;21.65;66.09;100364.47;4111025;28;20130;-66
2023/09/13 04:29:24;;;;;;;7.97;4.35;;;;;;;21.70;65.92;100373.16;4130958;28;20137;-66
2023/09/13 04:31:29;;;;;;;6.85;4.45;;;;;;;21.73;65.66;100370.41;4110528;28;20046;-66
2023/09/13 04:33:49;;;;;;;5.88;4.00;;;;;;;21.76;65.67;100385.31;4129772;28;20041;-66
2023/09/13 04:35:54;;;;;;;6.90;4.68;;;;;;;21.77;65.67;100385.25;4113831;28;20142;-66
2023/09/13 04:37:57;;;;;;;4.45;3.60;;;;;;;21.81;65.29;100391.28;4111478;28;20069;-65
2023/09/13 04:40:04;;;;;;;7.43;4.22;;;;;;;21.87;65.13;100390.22;4115726;28;20070;-66
2023/09/13 04:42:07;;;;;;;7.53;4.03;;;;;;;21.88;65.09;100384.88;4130106;28;20053;-66
2023/09/13 04:44:10;;;;;;;5.00;3.42;;;;;;;21.90;64.83;100383.06;4112339;28;20038;-66
2023/09/13 04:46:13;;;;;;;6.28;3.70;;;;;;;21.87;64.82;100388.44;4126461;28;20081;-66
2023/09/13 04:48:17;;;;;;;6.38;4.35;;;;;;;21.86;64.86;100384.09;4113173;28;20133;-66
2023/09/13 04:50:20;;;;;;;6.35;4.30;;;;;;;21.77;64.41;100385.25;4130980;28;20046;-66
2023/09/13 04:52:23;;;;;;;4.65;3.70;;;;;;;21.74;64.61;100389.78;4112135;28;20079;-66
2023/09/13 04:54:26;;;;;;;8.18;4.55;;;;;;;21.65;64.81;100379.50;4112979;28;20051;-65
2023/09/13 04:56:29;;;;;;;5.88;4.00;;;;;;;21.69;64.97;100384.63;4130311;28;20481;-66
2023/09/13 04:58:32;;;;;;;8.45;4.65;;;;;;;21.75;64.62;100381.78;4115699;28;20076;-66
2023/09/13 05:00:39;;;;;;;6.47;4.00;;;;;;;21.72;64.82;100383.69;4111618;28;20786;-66
2023/09/13 05:02:42;;;;;;;4.97;4.00;;;;;;;21.66;65.02;100383.88;4115092;28;20046;-66
2023/09/13 05:04:47;;;;;;;5.97;4.13;;;;;;;21.65;64.82;100393.59;4111996;28;20467;-66
2023/09/13 05:06:50;;;;;;;;;;;;;;;21.61;65.27;100394.59;4136193;28;20414;-66
2023/09/13 05:08:53;;;;;;;6.75;3.95;;;;;;;21.69;65.36;100394.38;4126276;28;19929;-66
2023/09/13 05:10:56;;;;;;;7.18;4.80;;;;;;;21.64;65.41;100391.00;4132518;28;20433;-65
2023/09/13 05:13:00;;;;;;;4.75;4.05;;;;;;;21.71;65.27;100393.41;4107626;28;20371;-65
2023/09/13 05:15:02;;;;;;;5.43;4.00;;;;;;;21.81;65.12;100396.59;4112731;28;20034;-64
2023/09/13 05:17:05;;;;;;;5.82;4.07;;;;;;;21.85;65.33;100392.94;4112439;28;20049;-65
2023/09/13 05:19:08;;;;;;;4.80;3.67;;;;;;;21.92;64.88;100405.03;4131074;28;20053;-65
2023/09/13 05:21:13;;;;;;;6.32;4.57;;;;;;;21.94;64.87;100408.50;4128318;28;20560;-65
2023/09/13 05:23:15;;;;;;;6.15;3.95;;;;;;;21.97;65.13;100405.72;4133877;28;20045;-65
2023/09/13 05:25:18;;;;;;;7.35;3.80;;;;;;;22.05;64.92;100401.97;4131980;28;20047;-65
2023/09/13 05:27:21;;;;;;;7.82;4.22;;;;;;;21.97;64.70;100404.88;4131773;28;20065;-65
2023/09/13 05:29:24;;;;;;;6.70;4.38;;;;;;;21.95;64.83;100410.22;4128479;28;20097;-66
2023/09/13 05:31:27;;;;;;;7.97;4.50;;;;;;;21.91;65.01;100403.31;4130654;28;20077;-65
2023/09/13 05:33:30;;;;;;;8.90;4.50;;;;;;;21.87;65.13;100409.59;4130338;28;20038;-64
2023/09/13 05:35:33;;;;;;;5.75;4.70;;;;;;;21.95;64.86;100407.59;4131928;28;20062;-64
2023/09/13 05:37:37;;;;;;;8.77;5.35;;;;;;;21.99;64.65;100404.81;4132302;28;20045;-65
2023/09/13 05:39:47;;;;;;;6.85;4.80;;;;;;;22.07;64.42;100416.03;4132310;28;20511;-64
2023/09/13 05:41:53;;;;;;;7.85;4.38;;;;;;;22.08;64.45;100412.47;4131851;28;20042;-65
2023/09/13 05:43:56;;;;;;;8.70;4.65;;;;;;;22.16;64.28;100412.19;4132425;28;20133;-64
2023/09/13 05:45:59;;;;;;;7.80;4.72;;;;;;;22.15;64.42;100419.25;4114816;28;20055;-64
2023/09/13 05:48:02;;;;;;;7.60;4.88;;;;;;;22.22;64.14;100425.22;4131537;28;20038;-64
2023/09/13 05:50:07;;;;;;;5.85;4.22;;;;;;;22.21;64.32;100424.38;4128743;28;20038;-64
2023/09/13 05:52:09;;;;;;;7.07;3.92;;;;;;;22.24;64.30;100432.19;4117433;28;20041;-64
2023/09/13 05:54:14;;;;;;;7.47;4.72;;;;;;;22.22;64.14;100433.16;4125062;28;20036;-64
2023/09/13 05:56:17;;;;;;;5.90;4.82;;;;;;;22.18;64.35;100439.47;4131664;28;20077;-64
2023/09/13 05:58:19;;;;;;;6.60;4.65;;;;;;;22.17;64.46;100443.91;4129071;28;20090;-65
2023/09/13 06:00:22;;;;;;;6.25;4.95;;;;;;;22.03;64.73;100449.66;4114003;28;20082;-65
2023/09/13 06:02:25;;;;;;;11.30;5.10;;;;;;;21.92;65.02;100452.69;4131340;28;20525;-65
2023/09/13 06:04:28;;;;;;;8.52;4.93;;;;;;;21.89;65.53;100458.09;4113276;28;20042;-64
2023/09/13 06:06:31;;;;;;;9.25;5.15;;;;;;;22.00;65.08;100456.88;4131809;28;20129;-64
2023/09/13 06:08:34;;;;;;;7.85;4.90;;;;;;;22.05;65.17;100460.19;4130831;28;20038;-64
2023/09/13 06:10:38;;;;;;;9.30;4.68;;;;;;;22.12;64.83;100470.56;4131276;28;20466;-64
2023/09/13 06:12:41;;;;;;;7.63;4.78;;;;;;;22.15;64.72;100461.63;4131899;28;20054;-65
2023/09/13 06:14:45;;;;;;;7.38;5.15;;;;;;;22.14;64.77;100459.91;4131547;28;20049;-64
2023/09/13 06:16:48;;;;;;;9.40;5.18;;;;;;;22.16;64.68;100463.38;4130745;28;20438;-64
2023/09/13 06:18:51;;;;;;;8.98;5.10;;;;;;;22.20;64.63;100461.50;4131124;28;20041;-64
2023/09/13 06:20:54;;;;;;;8.60;4.78;;;;;;;22.19;64.88;100462.41;4130381;28;20073;-64
2023/09/13 06:22:57;;;;;;;8.35;4.93;;;;;;;22.19;64.74;100465.91;4131238;28;20074;-64
2023/09/13 06:25:00;;;;;;;9.45;4.47;;;;;;;22.20;64.90;100459.69;4130924;28;20390;-64
2023/09/13 06:27:10;;;;;;;5.82;4.18;;;;;;;22.19;65.01;100460.59;4131581;28;20050;-64
2023/09/13 06:29:13;;;;;;;7.18;4.72;;;;;;;22.20;65.24;100465.00;4125644;28;20046;-64
2023/09/13 06:31:16;;;;;;;6.18;4.53;;;;;;;22.18;65.71;100471.25;4126216;28;20042;-64
2023/09/13 06:33:35;;;;;;;8.57;5.43;;;;;;;22.18;65.31;100466.84;4169740;22;20128;-65
2023/09/13 06:35:44;;;;;;;7.75;5.63;;;;;;;22.20;64.83;100474.72;4192670;28;20037;-65
2023/09/13 06:37:48;;;;;;;7.85;5.15;;;;;;;21.95;65.08;100475.56;4196469;28;20033;-65
2023/09/13 06:39:51;;;;;;;11.50;5.43;;;;;;;21.85;65.87;100482.91;4195729;28;20491;-65
2023/09/13 06:41:54;;;;;;;6.80;5.07;;;;;;;21.88;66.04;100477.53;4179263;28;20374;-65
2023/09/13 06:43:59;;;;;;;6.68;4.70;;;;;;;21.94;66.08;100484.41;4196666;28;20040;-65
2023/09/13 06:46:12;;;;;;;9.00;5.40;;;;;;;21.89;66.14;100487.19;4194968;28;20032;-65
2023/09/13 06:48:15;;;;;;;;;;;;;;;21.82;66.59;100487.47;4196536;28;20036;-65
2023/09/13 06:50:18;;;;;;;7.05;4.72;;;;;;;21.90;66.27;100483.66;4191789;28;19967;-65
2023/09/13 06:52:41;;;;;;;8.82;4.80;;;;;;;21.96;66.14;100487.84;4191436;28;20048;-65
2023/09/13 06:55:05;;;;;;;5.63;3.97;;;;;;;21.94;66.31;100485.25;4195645;28;20059;-65
2023/09/13 06:57:12;;;;;;;5.70;4.35;;;;;;;22.03;66.03;100499.13;4193926;28;20060;-65
2023/09/13 06:59:19;;;;;;;5.18;4.55;;;;;;;22.08;66.30;100502.50;4193780;28;20048;-65
2023/09/13 07:01:24;;;;;;;6.18;4.35;;;;;;;22.10;65.99;100505.94;4195519;28;20028;-65
2023/09/13 07:03:47;;;;;;;8.23;4.75;;;;;;;22.14;66.07;100513.72;4185293;28;20063;-65
2023/09/13 07:05:57;;;;;;;6.85;5.20;;;;;;;22.19;65.18;100505.63;4193459;28;20079;-65
2023/09/13 07:08:01;;;;;;;10.73;4.53;;;;;;;22.08;65.19;100510.44;4164249;28;20042;-65
2023/09/13 07:10:04;;;;;;;7.60;4.72;;;;;;;22.02;66.04;100503.56;4191976;28;20064;-65
2023/09/13 07:12:07;;;;;;;6.33;4.47;;;;;;;22.04;65.69;100503.50;4190831;28;20059;-65
2023/09/13 07:14:10;;;;;;;5.95;4.43;;;;;;;22.04;66.07;100511.44;4192154;28;20036;-65
2023/09/13 07:16:15;;;;;;;7.45;3.92;;;;;;;22.08;65.58;100515.72;4190968;28;20044;-65
2023/09/13 07:18:18;;;;;;;4.53;3.45;;;;;;;22.03;65.91;100522.94;4188991;28;20528;-65
2023/09/13 07:20:21;;;;;;;7.22;4.20;;;;;;;22.01;65.73;100530.06;4195006;28;20110;-65
2023/09/13 07:22:24;;;;;;;6.10;4.18;;;;;;;21.91;65.83;100532.16;4195672;28;20041;-65
2023/09/13 07:24:27;;;;;;;5.70;4.25;;;;;;;21.94;66.11;100530.25;4192695;28;20033;-65
2023/09/13 07:26:30;;;;;;;4.95;3.97;;;;;;;21.91;66.37;100532.16;4195242;28;20037;-65
2023/09/13 07:28:33;;;;;;;7.03;4.22;;;;;;;22.01;66.22;100532.72;4193405;28;20117;-65
2023/09/13 07:30:34;;;;;;;6.80;4.32;;;;;;;22.07;66.41;100525.44;4195378;28;20037;-66
2023/09/13 07:32:39;;;;;;;6.55;3.80;;;;;;;21.97;66.16;100537.25;4190096;28;20043;-66
2023/09/13 07:34:42;;;;;;;9.73;4.75;;;;;;;21.95;66.37;100545.22;4190885;28;20037;-66
2023/09/13 07:36:44;;;;;;;6.82;4.18;;;;;;;22.00;66.45;100542.44;4195030;28;20129;-66
2023/09/13 07:38:47;;;;;;;8.48;4.75;;;;;;;22.00;66.29;100536.28;4199039;28;20059;-66
2023/09/13 07:40:50;;;;;;;6.28;4.38;;;;;;;22.04;65.97;100541.41;4197624;28;20419;-66
2023/09/13 07:42:53;;;;;;;7.70;4.80;;;;;;;22.05;66.11;100550.22;4199959;28;20040;-65
2023/09/13 07:44:56;;;;;;;6.72;4.47;;;;;;;22.13;66.24;100545.56;4190830;28;20373;-65
2023/09/13 07:46:59;;;;;;;5.60;3.58;;;;;;;22.18;66.07;100548.03;4182644;28;20045;-65
2023/09/13 07:49:04;;;;;;;6.07;3.65;;;;;;;22.33;66.01;100546.69;4163525;28;20100;-65
2023/09/13 07:51:07;;;;;;;5.97;3.78;;;;;;;22.45;65.61;100547.16;4198472;28;20515;-65
2023/09/13 07:53:13;;;;;;;5.05;3.78;;;;;;;22.45;65.42;100554.25;4198029;28;20060;-65
2023/09/13 07:55:16;;;;;;;5.72;3.95;;;;;;;22.47;65.18;100555.06;4198360;28;20514;-65
2023/09/13 07:57:19;;;;;;;5.20;4.20;;;;;;;22.52;65.08;100561.09;4191386;28;20036;-65
2023/09/13 07:59:22;;;;;;;7.13;4.72;;;;;;;22.36;65.23;100562.53;4197997;28;20153;-65
2023/09/13 08:01:28;;;;;;;6.38;3.85;;;;;;;22.43;64.94;100564.06;4197597;28;20503;-65
2023/09/13 08:03:33;;;;;;;6.32;4.15;;;;;;;22.36;65.21;100570.47;4194439;28;20136;-65
2023/09/13 08:05:38;;;;;;;6.35;3.88;;;;;;;22.32;65.48;100572.34;4197998;28;20071;-66
2023/09/13 08:07:42;;;;;;;4.70;4.05;;;;;;;22.37;65.13;100574.81;4193377;28;20048;-66
2023/09/13 08:09:45;;;;;;;5.63;3.88;;;;;;;22.29;65.88;100577.69;4194296;28;20064;-66
2023/09/13 08:11:49;;;;;;;4.18;3.08;;;;;;;22.34;65.98;100581.13;4181545;28;20044;-65
2023/09/13 08:13:51;;;;;;;5.80;3.67;;;;;;;22.45;66.39;100571.00;4196356;28;20533;-65
2023/09/13 08:15:54;;;;;;;5.55;4.10;;;;;;;22.59;66.14;100577.63;4196438;28;20313;-65
2023/09/13 08:17:57;;;;;;;6.85;4.63;;;;;;;22.61;64.76;100579.31;4197367;28;20037;-65
2023/09/13 08:20:00;;;;;;;6.05;4.18;;;;;;;22.56;65.37;100578.59;4194496;28;20029;-66
2023/09/13 08:22:05;;;;;;;5.07;3.67;;;;;;;22.53;65.83;100578.72;4196349;28;20047;-66
2023/09/13 08:24:08;;;;;;;6.70;4.03;;;;;;;22.63;65.41;100577.50;4192421;28;20051;-66
2023/09/13 08:26:11;;;;;;;6.78;3.97;;;;;;;22.74;64.55;100578.91;4179461;28;20132;-66
2023/09/13 08:28:29;;;;;;;7.82;4.00;;;;;;;22.73;65.14;100577.16;4199048;28;20045;-66
2023/09/13 08:30:32;;;;;;;7.05;3.83;;;;;;;22.78;65.32;100578.75;4193622;28;20051;-66
2023/09/13 08:32:35;;;;;;;6.88;4.20;;;;;;;22.89;64.78;100583.66;4197647;28;20458;-66
2023/09/13 08:34:37;;;;;;;6.80;4.32;;;;;;;22.92;64.14;100580.03;4176024;28;20043;-66
2023/09/13 08:36:40;;;;;;;6.60;3.60;;;;;;;22.89;64.17;100586.31;4195524;28;20040;-66
2023/09/13 08:38:44;;;;;;;4.93;3.72;;;;;;;23.01;63.69;100595.59;4187856;28;20056;-66
2023/09/13 08:40:48;;;;;;;6.10;4.20;;;;;;;23.11;63.43;100591.75;4191640;28;20064;-66
2023/09/13 08:42:53;;;;;;;5.57;4.03;;;;;;;23.12;63.25;100588.16;4195229;28;20040;-66
2023/09/13 08:44:58;;;;;;;6.05;4.15;;;;;;;23.13;62.63;100596.97;4191355;28;20032;-66
2023/09/13 08:47:04;;;;;;;7.20;4.05;;;;;;;23.06;63.57;100603.44;4190780;28;20051;-66
2023/09/13 08:49:08;;;;;;;5.80;4.15;;;;;;;23.06;63.56;100604.28;4189231;28;20043;-66
2023/09/13 08:51:11;;;;;;;;;;;;;;;23.08;63.74;100606.88;4192356;28;20051;-66
2023/09/13 08:53:17;;;;;;;7.15;4.03;;;;;;;23.15;63.60;100593.38;4170781;28;19988;-66
2023/09/13 08:55:23;;;;;;;8.57;3.95;;;;;;;23.11;63.17;100602.34;4190210;28;20044;-67
2023/09/13 08:57:27;;;;;;;4.82;4.05;;;;;;;23.16;63.16;100604.84;4192186;28;20040;-66
2023/09/13 08:59:30;;;;;;;10.00;4.15;;;;;;;23.27;62.50;100597.34;4192517;28;20279;-66
2023/09/13 09:01:33;;;;;;;5.75;3.75;;;;;;;23.31;62.17;100592.81;4175534;28;20045;-66
2023/09/13 09:03:36;;;;;;;5.80;3.83;;;;;;;23.40;62.30;100592.47;4190313;28;20036;-66
2023/09/13 09:05:50;;;;;;;6.18;3.90;;;;;;;23.58;61.06;100593.56;4193981;28;20048;-66
2023/09/13 09:07:54;;;;;;;6.97;3.60;;;;;;;23.52;61.99;100596.44;4190277;28;20068;-66
2023/09/13 09:09:58;;;;;;;6.85;4.05;;;;;;;23.60;61.47;100597.03;4193284;28;20044;-66
2023/09/13 09:12:04;;;;;;;6.25;3.88;;;;;;;23.61;60.45;100598.78;4193209;28;20060;-66
2023/09/13 09:14:11;;;;;;;5.55;3.85;;;;;;;23.50;61.72;100596.50;4157271;28;20069;-66
2023/09/13 09:16:15;;;;;;;4.97;3.67;;;;;;;23.52;61.98;100596.44;4190966;28;20489;-66
2023/09/13 09:18:19;;;;;;;8.65;4.25;;;;;;;23.55;62.23;100606.94;4178757;28;20045;-66
2023/09/13 09:20:27;;;;;;;4.28;3.70;;;;;;;23.57;62.10;100601.56;4191312;28;20048;-66
2023/09/13 09:22:31;;;;;;;7.25;4.43;;;;;;;23.49;61.93;100608.03;4187818;28;20436;-66
2023/09/13 09:24:34;;;;;;;9.57;4.57;;;;;;;23.49;61.95;100616.00;4188228;28;20083;-66
2023/09/13 09:26:41;;;;;;;6.10;4.00;;;;;;;23.51;62.05;100615.97;4193257;28;20086;-66
2023/09/13 09:28:46;;;;;;;5.53;3.63;;;;;;;23.56;62.13;100606.03;4190722;28;20048;-66
2023/09/13 09:30:52;;;;;;;6.55;3.78;;;;;;;23.58;61.78;100612.13;4184772;28;20044;-66
2023/09/13 09:33:00;;;;;;;6.30;3.97;;;;;;;23.51;61.64;100606.22;4190211;28;20040;-66
2023/09/13 09:35:05;;;;;;;7.25;3.83;;;;;;;23.49;60.88;100602.72;4186492;28;20040;-67
2023/09/13 09:37:09;;;;;;;4.75;3.88;;;;;;;23.72;60.96;100601.00;4173850;28;20033;-66
2023/09/13 09:39:15;;;;;;;3.95;3.25;;;;;;;23.96;59.61;100604.56;4186811;28;20135;-66
2023/09/13 09:41:18;;;;;;;6.03;4.00;;;;;;;24.22;59.14;100614.13;4175888;28;20048;-66